Time;durP1;ratioP1;P1;durP2;ratioP2;P2;SDS_P1;SDS_P2;PMS_P1;PMS_P2;Temp;Humidity;BMP_temperature;BMP_pressure;BME280_temperature;BME280_humidity;BME280_pressure;Samples;Min_cycle;Max_cycle;Signal;HPM_P1;HPM_P2
2024/01/26 00:01:54;;;;;;;73.95;33.67;;;8.70;99.90;;;;;;5075211;28;20484;-38
2024/01/26 00:04:20;;;;;;;78.60;33.65;;;8.70;99.90;;;;;;5083963;28;20056;-34
2024/01/26 00:06:47;;;;;;;69.55;31.85;;;8.70;99.90;;;;;;5089706;28;20031;-33
2024/01/26 00:09:13;;;;;;;72.50;32.15;;;8.70;99.90;;;;;;5092303;28;20036;-33
2024/01/26 00:11:40;;;;;;;77.15;32.65;;;8.70;99.90;;;;;;5094100;28;20039;-35
2024/01/26 00:14:07;;;;;;;73.65;33.55;;;8.70;99.90;;;;;;5089768;28;20043;-34
2024/01/26 00:16:34;;;;;;;67.75;31.08;;;8.80;99.90;;;;;;5092130;28;20063;-34
2024/01/26 00:19:00;;;;;;;80.22;32.55;;;8.80;99.90;;;;;;5072431;28;20494;-34
2024/01/26 00:21:25;;;;;;;70.80;32.05;;;8.80;99.90;;;;;;5087780;28;20043;-34
2024/01/26 00:23:51;;;;;;;67.20;31.40;;;8.80;99.90;;;;;;5075976;28;20039;-37
2024/01/26 00:26:17;;;;;;;72.68;31.52;;;8.80;99.90;;;;;;5092598;28;20101;-37
2024/01/26 00:28:42;;;;;;;63.08;29.80;;;8.90;99.90;;;;;;5098621;28;20171;-38
2024/01/26 00:31:13;;;;;;;67.72;29.77;;;8.90;99.90;;;;;;5097641;28;20046;-35
2024/01/26 00:33:39;;;;;;;63.08;28.35;;;8.90;99.90;;;;;;5084981;28;20064;-36
2024/01/26 00:36:05;;;;;;;63.72;30.13;;;8.90;99.90;;;;;;5088478;28;20066;-36
2024/01/26 00:38:30;;;;;;;67.10;32.53;;;8.90;99.90;;;;;;5083435;28;20061;-36
2024/01/26 00:40:56;;;;;;;72.32;31.17;;;8.90;99.90;;;;;;5078430;28;20494;-35
2024/01/26 00:43:22;;;;;;;66.07;31.55;;;8.90;99.90;;;;;;5089172;28;20040;-35
2024/01/26 00:45:47;;;;;;;68.15;31.13;;;8.90;99.90;;;;;;5094457;28;20039;-37
2024/01/26 00:48:13;;;;;;;63.17;30.20;;;8.90;99.90;;;;;;5086773;28;20040;-37
2024/01/26 00:50:40;;;;;;;67.45;30.38;;;8.90;99.90;;;;;;5089145;28;20085;-38
2024/01/26 00:53:06;;;;;;;68.35;32.42;;;8.90;99.90;;;;;;5091731;28;20047;-39
2024/01/26 00:55:32;;;;;;;64.20;30.38;;;8.90;99.90;;;;;;5091658;28;20036;-35
2024/01/26 00:57:58;;;;;;;63.38;31.35;;;9.00;99.90;;;;;;5093325;28;20089;-36
2024/01/26 01:00:24;;;;;;;63.28;29.05;;;8.90;99.90;;;;;;5084351;28;20037;-38
2024/01/26 01:02:51;;;;;;;63.88;30.13;;;8.90;99.90;;;;;;5096478;28;20160;-34
2024/01/26 01:05:28;;;;;;;64.93;29.42;;;9.00;99.90;;;;;;5100591;28;20417;-35
2024/01/26 01:07:54;;;;;;;62.30;28.70;;;9.00;99.90;;;;;;5076371;28;20395;-34
2024/01/26 01:10:21;;;;;;;67.35;30.33;;;9.00;99.90;;;;;;5093468;28;20044;-34
2024/01/26 01:12:47;;;;;;;64.38;30.33;;;9.00;99.90;;;;;;5092726;28;20043;-34
2024/01/26 01:15:12;;;;;;;63.00;30.50;;;9.00;99.90;;;;;;5092860;28;20067;-34
2024/01/26 01:17:39;;;;;;;59.83;29.40;;;9.00;99.90;;;;;;5093208;28;20078;-34
2024/01/26 01:20:08;;;;;;;61.80;29.85;;;9.00;99.90;;;;;;5093357;28;20403;-34
2024/01/26 01:22:34;;;;;;;62.85;29.73;;;9.00;99.90;;;;;;5095915;28;20054;-35
2024/01/26 01:25:00;;;;;;;67.68;30.13;;;9.10;99.90;;;;;;5093434;28;20043;-34
2024/01/26 01:27:26;;;;;;;58.35;28.92;;;9.10;99.90;;;;;;5093166;28;20028;-34
2024/01/26 01:29:52;;;;;;;57.85;29.48;;;9.10;99.90;;;;;;5092969;28;20111;-34
2024/01/26 01:32:17;;;;;;;63.15;31.67;;;9.10;99.90;;;;;;5092984;28;20071;-34
2024/01/26 01:34:43;;;;;;;62.35;30.15;;;9.10;99.90;;;;;;5092538;28;20422;-35
2024/01/26 01:37:09;;;;;;;65.40;29.70;;;9.10;99.90;;;;;;5091371;28;20588;-34
2024/01/26 01:39:36;;;;;;;64.78;32.70;;;9.10;99.90;;;;;;5090633;28;20043;-34
2024/01/26 01:42:03;;;;;;;61.90;29.33;;;9.10;99.90;;;;;;5092986;28;20051;-34
2024/01/26 01:44:30;;;;;;;61.00;30.02;;;9.10;99.90;;;;;;5075344;28;20575;-34
2024/01/26 01:46:56;;;;;;;58.65;29.83;;;9.10;99.90;;;;;;5080289;28;20051;-34
2024/01/26 01:49:22;;;;;;;58.38;29.55;;;9.20;99.90;;;;;;5092423;28;20089;-35
2024/01/26 01:51:52;;;;;;;61.78;29.90;;;9.20;99.90;;;;;;5089472;28;20135;-34
2024/01/26 01:54:19;;;;;;;59.40;29.23;;;9.30;99.90;;;;;;5095727;28;20043;-34
2024/01/26 01:56:46;;;;;;;55.67;27.63;;;9.30;99.90;;;;;;5092687;28;20119;-34
2024/01/26 01:59:12;;;;;;;51.72;26.55;;;9.30;99.90;;;;;;5090588;28;20546;-34
2024/01/26 02:01:37;;;;;;;53.13;26.67;;;9.30;99.90;;;;;;5085937;28;20111;-34
2024/01/26 02:04:04;;;;;;;50.50;26.83;;;9.40;99.90;;;;;;5091368;28;20044;-34
2024/01/26 02:06:30;;;;;;;52.08;25.95;;;9.40;99.90;;;;;;5089793;28;20554;-35
2024/01/26 02:08:56;;;;;;;45.88;25.92;;;9.40;99.90;;;;;;5086985;28;20119;-34
2024/01/26 02:11:23;;;;;;;46.60;25.75;;;9.40;99.90;;;;;;5104806;28;20040;-34
2024/01/26 02:13:48;;;;;;;45.92;23.45;;;9.40;99.90;;;;;;5092169;28;20478;-34
2024/01/26 02:16:14;;;;;;;46.83;25.88;;;9.40;99.90;;;;;;5093092;28;20099;-34
2024/01/26 02:18:40;;;;;;;45.22;24.08;;;9.50;99.90;;;;;;5102746;28;20040;-34
2024/01/26 02:21:06;;;;;;;42.55;24.45;;;9.40;99.90;;;;;;5091692;28;20452;-34
2024/01/26 02:23:32;;;;;;;42.05;24.02;;;9.40;99.90;;;;;;5091902;28;20047;-35
2024/01/26 02:25:57;;;;;;;44.33;25.27;;;9.50;99.90;;;;;;5091901;28;20163;-34
2024/01/26 02:28:23;;;;;;;45.28;24.98;;;9.50;99.90;;;;;;5092256;28;20032;-34
2024/01/26 02:30:49;;;;;;;43.78;24.08;;;9.50;99.90;;;;;;5073834;28;20047;-34
2024/01/26 02:33:15;;;;;;;42.47;23.52;;;9.50;99.90;;;;;;5088112;28;20039;-34
2024/01/26 02:35:41;;;;;;;42.63;22.67;;;9.50;99.90;;;;;;5091846;28;20032;-37
2024/01/26 02:38:06;;;;;;;40.50;24.23;;;9.50;99.90;;;;;;5089653;28;20550;-37
2024/01/26 02:40:32;;;;;;;42.00;23.92;;;9.50;99.90;;;;;;5091027;28;20044;-34
2024/01/26 02:42:58;;;;;;;45.35;24.48;;;9.50;99.90;;;;;;5090114;28;20031;-34
2024/01/26 02:45:25;;;;;;;38.47;23.00;;;9.50;99.90;;;;;;5086337;28;20486;-35
2024/01/26 02:47:50;;;;;;;37.42;22.02;;;9.50;99.90;;;;;;5073039;28;20032;-34
2024/01/26 02:50:16;;;;;;;37.60;21.88;;;9.50;99.90;;;;;;5091945;28;20105;-35
2024/01/26 02:52:42;;;;;;;38.03;22.30;;;9.60;99.90;;;;;;5072412;28;20094;-34
2024/01/26 02:55:08;;;;;;;35.90;21.73;;;9.50;99.90;;;;;;5089052;28;20120;-36
2024/01/26 02:57:33;;;;;;;38.63;22.77;;;9.60;99.90;;;;;;5096241;28;20375;-34
2024/01/26 02:59:59;;;;;;;34.03;20.45;;;9.60;99.90;;;;;;5073809;28;20079;-35
2024/01/26 03:02:25;;;;;;;34.95;21.70;;;9.50;99.90;;;;;;5091194;28;20051;-36
2024/01/26 03:04:51;;;;;;;34.40;21.17;;;9.60;99.90;;;;;;5089193;28;20036;-34
2024/01/26 03:07:17;;;;;;;36.53;21.10;;;9.60;99.90;;;;;;5083511;28;20036;-35
2024/01/26 03:09:42;;;;;;;35.22;20.58;;;9.60;99.90;;;;;;5090483;28;20044;-34
2024/01/26 03:12:08;;;;;;;35.25;20.30;;;9.60;99.90;;;;;;5070926;28;20036;-34
2024/01/26 03:14:34;;;;;;;33.33;20.88;;;9.60;99.90;;;;;;5089758;28;20072;-36
2024/01/26 03:16:59;;;;;;;33.20;21.23;;;9.60;99.90;;;;;;5080101;28;20127;-34
2024/01/26 03:19:25;;;;;;;36.72;20.52;;;9.60;99.90;;;;;;5089625;28;20044;-34
2024/01/26 03:21:51;;;;;;;32.15;20.48;;;9.60;99.90;;;;;;5073098;28;20380;-36
2024/01/26 03:24:17;;;;;;;34.13;20.80;;;9.60;99.90;;;;;;5090941;28;20079;-35
2024/01/26 03:26:43;;;;;;;34.00;20.83;;;9.60;99.90;;;;;;5101472;28;20052;-34
2024/01/26 03:29:09;;;;;;;36.95;19.83;;;9.60;99.90;;;;;;5091236;28;20040;-35
2024/01/26 03:31:34;;;;;;;35.92;21.00;;;9.70;99.90;;;;;;5090753;28;20039;-35
2024/01/26 03:34:00;;;;;;;31.58;19.80;;;9.60;99.90;;;;;;5091166;28;20407;-39
2024/01/26 03:36:27;;;;;;;33.10;21.48;;;9.70;99.90;;;;;;5091387;28;20464;-37
2024/01/26 03:38:53;;;;;;;32.20;20.30;;;9.70;99.90;;;;;;5091064;28;20040;-34
2024/01/26 03:41:18;;;;;;;36.05;21.63;;;9.70;99.90;;;;;;5090718;28;20128;-35
2024/01/26 03:43:44;;;;;;;36.05;20.67;;;9.70;99.90;;;;;;5090441;28;20063;-34
2024/01/26 03:46:10;;;;;;;37.45;22.58;;;9.70;99.90;;;;;;5090483;28;20042;-35
2024/01/26 03:48:37;;;;;;;35.78;21.73;;;9.70;99.90;;;;;;5087981;28;20036;-35
2024/01/26 03:51:02;;;;;;;38.55;22.60;;;9.70;99.90;;;;;;5087991;28;20047;-35
2024/01/26 03:53:28;;;;;;;34.95;21.35;;;9.70;99.90;;;;;;5094924;28;20361;-34
2024/01/26 03:55:54;;;;;;;32.85;20.60;;;9.70;99.90;;;;;;5074452;28;20494;-36
2024/01/26 03:58:20;;;;;;;32.20;21.67;;;9.70;99.90;;;;;;5090179;28;20040;-36
2024/01/26 04:00:46;;;;;;;36.70;21.50;;;9.70;99.90;;;;;;5090523;28;20040;-35
2024/01/26 04:03:12;;;;;;;35.42;21.63;;;9.70;99.90;;;;;;5089024;28;20137;-36
2024/01/26 04:05:37;;;;;;;34.80;21.05;;;9.80;99.90;;;;;;5096561;28;20517;-34
2024/01/26 04:08:03;;;;;;;36.30;22.38;;;9.80;99.90;;;;;;5093476;28;20119;-35
2024/01/26 04:10:30;;;;;;;35.72;21.15;;;9.80;99.90;;;;;;5089017;28;20403;-34
2024/01/26 04:12:56;;;;;;;33.65;20.30;;;9.80;99.90;;;;;;5093986;28;20119;-34
2024/01/26 04:15:22;;;;;;;33.85;20.08;;;9.80;99.90;;;;;;5089079;28;20063;-35
2024/01/26 04:17:48;;;;;;;32.67;20.15;;;9.80;99.90;;;;;;5093695;28;20398;-36
2024/01/26 04:20:14;;;;;;;30.88;19.55;;;9.80;99.90;;;;;;5092183;28;20032;-33
2024/01/26 04:22:42;;;;;;;31.38;18.45;;;9.80;99.90;;;;;;5087936;28;20040;-34
2024/01/26 04:25:09;;;;;;;31.13;19.55;;;9.80;99.90;;;;;;5075118;28;20062;-34
2024/01/26 04:27:35;;;;;;;29.52;19.15;;;9.80;99.90;;;;;;5088568;28;20032;-34
2024/01/26 04:30:03;;;;;;;30.58;20.63;;;9.90;99.90;;;;;;5105915;28;20443;-34
2024/01/26 04:32:29;;;;;;;28.75;18.90;;;9.90;99.90;;;;;;5104369;28;20044;-36
2024/01/26 04:34:55;;;;;;;30.98;19.83;;;9.80;99.90;;;;;;5089527;28;20048;-36
2024/01/26 04:37:21;;;;;;;32.45;19.02;;;9.90;99.90;;;;;;5092237;28;20047;-35
2024/01/26 04:39:47;;;;;;;33.53;20.15;;;9.90;99.90;;;;;;5095349;28;20118;-34
2024/01/26 04:42:13;;;;;;;31.40;20.10;;;10.00;99.90;;;;;;5076297;28;20390;-39
2024/01/26 04:44:39;;;;;;;30.08;20.50;;;10.00;99.90;;;;;;5094159;28;20115;-35
2024/01/26 04:47:04;;;;;;;35.03;20.85;;;10.00;99.90;;;;;;5095191;28;20403;-35
2024/01/26 04:49:30;;;;;;;33.45;21.70;;;10.00;99.90;;;;;;5095006;28;20036;-35
2024/01/26 04:51:56;;;;;;;36.22;21.92;;;10.00;99.90;;;;;;5094816;28;20040;-35
2024/01/26 04:54:22;;;;;;;33.70;20.70;;;10.00;99.90;;;;;;5093751;28;20105;-39
2024/01/26 04:56:48;;;;;;;33.72;21.38;;;10.00;99.90;;;;;;5089757;28;20070;-36
2024/01/26 04:59:14;;;;;;;34.20;20.65;;;10.10;99.90;;;;;;5093870;28;20051;-36
2024/01/26 05:01:39;;;;;;;33.17;21.20;;;10.10;99.90;;;;;;5090993;28;20036;-36
2024/01/26 05:04:06;;;;;;;30.80;21.80;;;10.10;99.90;;;;;;5086552;28;20376;-37
2024/01/26 05:06:32;;;;;;;35.00;21.77;;;10.10;99.90;;;;;;5093672;28;20040;-37
2024/01/26 05:08:57;;;;;;;32.13;21.98;;;10.10;99.90;;;;;;5072339;28;20145;-36
2024/01/26 05:11:23;;;;;;;34.72;22.08;;;10.10;99.90;;;;;;5092899;28;20151;-39
2024/01/26 05:13:49;;;;;;;29.85;20.38;;;10.10;99.90;;;;;;5094089;28;20527;-39
2024/01/26 05:16:15;;;;;;;32.60;21.38;;;10.10;99.90;;;;;;5095180;28;20052;-37
2024/01/26 05:18:40;;;;;;;33.13;21.30;;;10.20;99.90;;;;;;5104595;28;20042;-37
2024/01/26 05:21:06;;;;;;;31.50;20.55;;;10.20;99.90;;;;;;5087186;28;20374;-38
2024/01/26 05:23:32;;;;;;;32.70;20.70;;;10.20;99.90;;;;;;5104451;28;20050;-37
2024/01/26 05:25:58;;;;;;;28.92;19.52;;;10.20;99.90;;;;;;5097523;28;20040;-38
2024/01/26 05:28:23;;;;;;;33.38;20.20;;;10.30;99.90;;;;;;5098532;28;20043;-37
2024/01/26 05:30:49;;;;;;;30.58;19.45;;;10.30;99.90;;;;;;5098260;28;20363;-36
2024/01/26 05:33:15;;;;;;;30.20;19.10;;;10.30;99.90;;;;;;5098062;28;20032;-38
2024/01/26 05:35:40;;;;;;;28.55;18.88;;;10.30;99.90;;;;;;5089854;28;20040;-39
2024/01/26 05:38:06;;;;;;;30.35;19.50;;;10.30;99.90;;;;;;5092274;28;20079;-35
2024/01/26 05:40:32;;;;;;;28.92;19.30;;;10.30;99.90;;;;;;5095672;28;20032;-36
2024/01/26 05:42:58;;;;;;;24.98;18.95;;;10.30;99.90;;;;;;5108504;28;20398;-37
2024/01/26 05:45:24;;;;;;;26.92;17.05;;;10.40;99.90;;;;;;5087540;28;20101;-38
2024/01/26 05:47:49;;;;;;;27.20;19.70;;;10.40;99.90;;;;;;5096205;28;20036;-41
2024/01/26 05:50:16;;;;;;;26.23;17.77;;;10.40;99.90;;;;;;5090476;28;20115;-36
2024/01/26 05:52:41;;;;;;;28.45;18.60;;;10.40;99.90;;;;;;5090105;28;20028;-37
2024/01/26 05:55:08;;;;;;;26.38;17.95;;;10.40;99.90;;;;;;5092745;28;20050;-35
2024/01/26 05:57:34;;;;;;;25.80;17.90;;;10.40;99.90;;;;;;5090823;28;20094;-37
2024/01/26 06:00:00;;;;;;;28.20;17.85;;;10.50;99.90;;;;;;5106317;28;20122;-38
2024/01/26 06:02:27;;;;;;;28.23;17.52;;;10.50;99.90;;;;;;5091548;28;20491;-37
2024/01/26 06:04:53;;;;;;;23.95;16.50;;;10.50;99.90;;;;;;5076015;28;20048;-36
2024/01/26 06:07:19;;;;;;;25.45;18.20;;;10.50;99.90;;;;;;5089661;28;20043;-40
2024/01/26 06:09:45;;;;;;;26.35;17.70;;;10.50;99.90;;;;;;5091316;28;20081;-36
2024/01/26 06:12:11;;;;;;;26.02;17.98;;;10.50;99.90;;;;;;5084262;28;20047;-39
2024/01/26 06:14:36;;;;;;;23.85;16.42;;;10.50;99.90;;;;;;5092990;28;20039;-37
2024/01/26 06:17:03;;;;;;;26.38;17.30;;;10.50;99.90;;;;;;5091751;28;20081;-37
2024/01/26 06:19:28;;;;;;;24.73;16.02;;;10.50;99.90;;;;;;5085952;28;20499;-38
2024/01/26 06:21:54;;;;;;;26.80;16.33;;;10.50;99.90;;;;;;5086950;28;20043;-35
2024/01/26 06:24:20;;;;;;;25.42;18.63;;;10.50;99.90;;;;;;5085392;28;20127;-36
2024/01/26 06:26:46;;;;;;;27.30;19.38;;;10.50;99.90;;;;;;5089656;28;20039;-36
2024/01/26 06:29:11;;;;;;;29.63;22.13;;;10.40;99.90;;;;;;5088017;28;20041;-36
2024/01/26 06:31:37;;;;;;;26.48;17.98;;;10.40;99.90;;;;;;5067927;28;20048;-35
2024/01/26 06:34:03;;;;;;;25.60;16.92;;;10.40;99.90;;;;;;5090662;28;20040;-37
2024/01/26 06:36:28;;;;;;;24.25;16.85;;;10.40;99.90;;;;;;5096417;28;20034;-38
2024/01/26 06:38:54;;;;;;;23.85;15.70;;;10.40;99.90;;;;;;5093506;28;20044;-35
2024/01/26 06:41:20;;;;;;;24.90;15.40;;;10.40;99.90;;;;;;5086678;28;20048;-36
2024/01/26 06:43:51;;;;;;;23.17;14.93;;;10.40;99.90;;;;;;5072884;28;20044;-36
2024/01/26 06:46:22;;;;;;;23.17;15.27;;;10.40;99.90;;;;;;5085251;28;20040;-37
2024/01/26 06:48:48;;;;;;;21.73;13.80;;;10.40;99.90;;;;;;5091739;28;20034;-34
2024/01/26 06:51:14;;;;;;;23.63;14.00;;;10.40;99.90;;;;;;5093433;28;20054;-35
2024/01/26 06:53:40;;;;;;;26.20;15.80;;;10.40;99.90;;;;;;5091339;28;20044;-36
2024/01/26 06:56:07;;;;;;;25.10;14.88;;;10.40;99.90;;;;;;5090268;28;20105;-34
2024/01/26 06:58:33;;;;;;;24.42;14.48;;;10.40;99.90;;;;;;5092871;28;20040;-34
2024/01/26 07:01:00;;;;;;;17.92;12.27;;;10.40;99.90;;;;;;5092508;28;20048;-35
2024/01/26 07:03:26;;;;;;;19.85;14.15;;;10.40;99.90;;;;;;5092678;28;20502;-35
2024/01/26 07:05:52;;;;;;;19.83;13.50;;;10.40;99.90;;;;;;5092483;28;20036;-35
2024/01/26 07:08:18;;;;;;;18.30;12.88;;;10.40;99.90;;;;;;5092800;28;20081;-36
2024/01/26 07:10:43;;;;;;;18.80;13.35;;;10.40;99.90;;;;;;5092800;28;20036;-35
2024/01/26 07:13:09;;;;;;;18.95;13.02;;;10.40;99.90;;;;;;5074982;28;20127;-35
2024/01/26 07:15:35;;;;;;;14.98;11.75;;;10.40;99.90;;;;;;5076457;28;20471;-35
2024/01/26 07:18:01;;;;;;;18.42;12.63;;;10.40;99.90;;;;;;5074344;28;20040;-33
2024/01/26 07:20:27;;;;;;;20.10;12.88;;;10.40;99.90;;;;;;5103898;28;20456;-34
2024/01/26 07:22:53;;;;;;;18.83;11.65;;;10.40;99.90;;;;;;5092409;28;20126;-33
2024/01/26 07:25:20;;;;;;;20.55;12.80;;;10.40;99.90;;;;;;5109847;28;20114;-34
2024/01/26 07:27:46;;;;;;;17.30;11.93;;;10.40;99.90;;;;;;5106148;28;20032;-35
2024/01/26 07:30:13;;;;;;;16.33;11.68;;;10.40;99.90;;;;;;5088900;28;20047;-34
2024/01/26 07:32:39;;;;;;;17.83;12.20;;;10.30;99.90;;;;;;5084150;28;20032;-33
2024/01/26 07:35:06;;;;;;;16.40;11.75;;;10.40;99.90;;;;;;5074450;28;20040;-34
2024/01/26 07:37:32;;;;;;;16.35;11.85;;;10.30;99.90;;;;;;5092520;28;20052;-34
2024/01/26 07:40:01;;;;;;;16.58;11.43;;;10.30;99.90;;;;;;5092560;28;20066;-36
2024/01/26 07:42:26;;;;;;;15.48;11.30;;;10.40;99.90;;;;;;5095687;28;20048;-34
2024/01/26 07:44:52;;;;;;;16.98;11.95;;;10.40;99.90;;;;;;5092850;28;20485;-37
2024/01/26 07:47:18;;;;;;;16.65;12.00;;;10.40;99.90;;;;;;5109618;28;20042;-37
2024/01/26 07:49:44;;;;;;;15.77;11.07;;;10.40;99.90;;;;;;5077307;28;20119;-36
2024/01/26 07:52:09;;;;;;;15.73;11.30;;;10.40;99.90;;;;;;5089085;28;20392;-35
2024/01/26 07:54:35;;;;;;;14.82;11.18;;;10.40;99.90;;;;;;5093185;28;20068;-42
2024/01/26 07:57:01;;;;;;;16.30;11.20;;;10.40;99.90;;;;;;5083632;28;20539;-38
2024/01/26 07:59:27;;;;;;;19.13;12.63;;;10.40;99.90;;;;;;5100146;28;20035;-42
2024/01/26 08:01:52;;;;;;;24.60;13.93;;;10.40;99.90;;;;;;5105582;28;20046;-41
2024/01/26 08:04:18;;;;;;;40.65;21.05;;;10.40;99.90;;;;;;5093459;28;20040;-39
2024/01/26 08:06:44;;;;;;;16.20;11.57;;;10.40;99.90;;;;;;5088114;28;20557;-40
2024/01/26 08:09:10;;;;;;;19.20;13.80;;;10.40;99.90;;;;;;5089692;28;20407;-40
2024/01/26 08:11:36;;;;;;;20.10;12.05;;;10.40;99.90;;;;;;5086225;28;20058;-36
2024/01/26 08:14:02;;;;;;;18.17;13.35;;;10.40;99.90;;;;;;5094766;28;20039;-35
2024/01/26 08:16:28;;;;;;;15.52;10.00;;;10.40;99.90;;;;;;5092776;28;20062;-34
2024/01/26 08:18:54;;;;;;;15.57;10.85;;;10.50;99.90;;;;;;5080596;28;20052;-37
2024/01/26 08:21:20;;;;;;;15.15;10.57;;;10.50;99.90;;;;;;5090976;28;20036;-39
2024/01/26 08:23:47;;;;;;;16.33;10.48;;;10.50;99.90;;;;;;5092528;28;20071;-36
2024/01/26 08:26:13;;;;;;;14.75;9.95;;;10.50;99.90;;;;;;5076046;28;20360;-36
2024/01/26 08:28:40;;;;;;;19.23;14.20;;;10.50;99.90;;;;;;5092495;28;20036;-38
2024/01/26 08:31:05;;;;;;;13.57;10.15;;;10.60;99.90;;;;;;5088715;28;20041;-39
2024/01/26 08:33:31;;;;;;;13.85;10.98;;;10.60;99.90;;;;;;5093323;28;20042;-36
2024/01/26 08:35:57;;;;;;;15.82;10.88;;;10.60;99.90;;;;;;5082735;28;20123;-36
2024/01/26 08:38:23;;;;;;;13.00;10.05;;;10.60;99.90;;;;;;5092931;28;20441;-36
2024/01/26 08:40:49;;;;;;;12.77;10.20;;;10.70;99.90;;;;;;5085831;28;20091;-38
2024/01/26 08:43:15;;;;;;;12.65;8.38;;;10.70;99.90;;;;;;5090140;28;20036;-38
2024/01/26 08:45:41;;;;;;;12.63;9.25;;;10.70;99.90;;;;;;5093075;28;20040;-36
2024/01/26 08:48:07;;;;;;;12.75;10.00;;;10.70;99.90;;;;;;5093333;28;20487;-36
2024/01/26 08:50:33;;;;;;;15.90;12.50;;;10.70;99.90;;;;;;5089789;28;20036;-36
2024/01/26 08:52:58;;;;;;;14.07;10.57;;;10.70;99.90;;;;;;5091673;28;20039;-37
2024/01/26 08:55:24;;;;;;;19.80;11.75;;;10.70;99.90;;;;;;5091946;28;20611;-38
2024/01/26 08:57:50;;;;;;;16.52;11.93;;;10.70;99.90;;;;;;5099159;28;20115;-37
2024/01/26 09:00:19;;;;;;;14.93;10.52;;;10.70;99.90;;;;;;5093346;28;20075;-38
2024/01/26 09:02:45;;;;;;;15.65;11.85;;;10.70;99.90;;;;;;5088826;28;20552;-36
2024/01/26 09:05:11;;;;;;;16.17;10.93;;;10.80;99.90;;;;;;5091838;28;20032;-38
2024/01/26 09:07:37;;;;;;;15.13;11.23;;;10.70;99.90;;;;;;5088356;28;20452;-37
2024/01/26 09:10:05;;;;;;;17.13;11.77;;;10.80;99.90;;;;;;5080747;28;20043;-38
2024/01/26 09:12:32;;;;;;;16.35;11.25;;;10.90;99.90;;;;;;5088960;28;20028;-35
2024/01/26 09:14:58;;;;;;;16.02;11.25;;;10.90;99.90;;;;;;5092168;28;20044;-40
2024/01/26 09:17:24;;;;;;;14.77;11.20;;;10.90;99.90;;;;;;5089101;28;20036;-35
2024/01/26 09:19:50;;;;;;;15.63;11.93;;;10.90;99.90;;;;;;5093265;28;20039;-39
2024/01/26 09:22:16;;;;;;;16.92;11.75;;;11.00;99.90;;;;;;5090152;28;20394;-38
2024/01/26 09:24:42;;;;;;;15.70;11.73;;;10.90;99.90;;;;;;5092711;28;20028;-36
2024/01/26 09:27:08;;;;;;;14.93;11.00;;;11.00;99.90;;;;;;5090720;28;20061;-40
2024/01/26 09:29:33;;;;;;;16.13;10.35;;;11.00;99.90;;;;;;5092717;28;20047;-36
2024/01/26 09:31:59;;;;;;;14.30;10.75;;;11.00;99.90;;;;;;5084869;28;20440;-36
2024/01/26 09:34:26;;;;;;;15.10;10.50;;;11.00;99.90;;;;;;5084351;28;20471;-35
2024/01/26 09:36:52;;;;;;;13.93;10.40;;;11.10;99.90;;;;;;5083853;28;20025;-36
2024/01/26 09:39:17;;;;;;;12.50;9.93;;;11.00;99.90;;;;;;5087353;28;20043;-38
2024/01/26 09:41:43;;;;;;;6.47;5.88;;;11.00;99.90;;;;;;5088007;28;20055;-36
2024/01/26 09:44:10;;;;;;;2.65;2.17;;;10.90;99.90;;;;;;5085258;28;20032;-35
2024/01/26 09:46:36;;;;;;;2.15;1.20;;;10.60;99.90;;;;;;5088003;28;20043;-35
2024/01/26 09:49:06;;;;;;;1.33;0.85;;;10.20;99.90;;;;;;5089003;28;20034;-36
2024/01/26 09:51:33;;;;;;;2.30;1.00;;;9.90;99.90;;;;;;5088462;28;20376;-36
2024/01/26 09:54:00;;;;;;;2.22;1.00;;;9.60;99.90;;;;;;5087464;28;20035;-37
2024/01/26 09:56:27;;;;;;;1.38;0.80;;;9.50;99.90;;;;;;5089865;28;20036;-36
2024/01/26 09:58:53;;;;;;;3.88;1.00;;;9.40;99.90;;;;;;5090550;28;20031;-37
2024/01/26 10:01:23;;;;;;;3.38;0.82;;;9.30;99.90;;;;;;5085276;28;20035;-38
2024/01/26 10:03:52;;;;;;;2.13;0.82;;;9.30;99.90;;;;;;5087174;28;20036;-36
2024/01/26 10:06:20;;;;;;;2.35;1.20;;;9.30;99.90;;;;;;5087046;28;20074;-36
2024/01/26 10:08:46;;;;;;;3.05;0.90;;;9.30;99.90;;;;;;5065508;28;20488;-38
2024/01/26 10:11:11;;;;;;;4.97;1.10;;;9.20;99.90;;;;;;5083562;28;20105;-39
2024/01/26 10:13:37;;;;;;;4.65;1.23;;;9.20;99.90;;;;;;5084629;28;20557;-36
2024/01/26 10:16:07;;;;;;;3.90;1.23;;;9.20;99.90;;;;;;5086896;28;20580;-36
2024/01/26 10:18:43;;;;;;;2.33;0.93;;;9.10;99.90;;;;;;5096386;28;20048;-38
2024/01/26 10:21:14;;;;;;;7.55;1.40;;;9.00;99.90;;;;;;5089929;28;20036;-37
2024/01/26 10:23:41;;;;;;;3.90;1.10;;;9.00;99.90;;;;;;5089182;28;20050;-43
2024/01/26 10:26:10;;;;;;;5.53;1.38;;;9.00;99.90;;;;;;5065032;28;20040;-37
2024/01/26 10:28:35;;;;;;;7.03;1.40;;;8.90;99.90;;;;;;5084277;28;20115;-37
2024/01/26 10:31:01;;;;;;;7.13;2.15;;;8.90;99.90;;;;;;5082949;28;20463;-36
2024/01/26 10:33:33;;;;;;;7.43;1.88;;;8.90;99.90;;;;;;5092111;28;20040;-37
2024/01/26 10:36:02;;;;;;;7.80;1.75;;;8.90;99.90;;;;;;5086399;28;20068;-38
2024/01/26 10:38:30;;;;;;;6.03;1.70;;;8.90;99.90;;;;;;5090265;28;20059;-36
2024/01/26 10:41:04;;;;;;;7.60;1.92;;;8.90;99.90;;;;;;5074645;28;20575;-35
2024/01/26 10:43:31;;;;;;;6.72;1.95;;;8.90;99.90;;;;;;5084420;28;20047;-35
2024/01/26 10:45:57;;;;;;;8.88;2.35;;;8.90;99.90;;;;;;5091899;28;20036;-36
2024/01/26 10:48:27;;;;;;;8.88;2.30;;;8.90;99.90;;;;;;5094854;28;20039;-36
2024/01/26 10:50:54;;;;;;;8.85;2.22;;;8.90;99.90;;;;;;5086917;28;20050;-39
2024/01/26 10:53:21;;;;;;;9.82;1.92;;;8.90;99.90;;;;;;5091386;28;20081;-36
2024/01/26 10:55:49;;;;;;;13.00;2.50;;;8.90;99.90;;;;;;5103928;28;20039;-36
2024/01/26 10:58:15;;;;;;;11.23;2.28;;;8.90;99.90;;;;;;5103742;28;20042;-35
2024/01/26 11:00:41;;;;;;;12.07;2.70;;;8.90;99.90;;;;;;5100975;28;20043;-38
2024/01/26 11:03:09;;;;;;;10.70;2.10;;;8.90;99.90;;;;;;5072731;28;20122;-38
2024/01/26 11:05:35;;;;;;;12.40;2.70;;;9.00;99.90;;;;;;5091173;28;20047;-36
2024/01/26 11:08:15;;;;;;;10.70;2.63;;;9.00;99.90;;;;;;5090151;28;20105;-38
2024/01/26 11:10:41;;;;;;;13.93;2.53;;;9.00;99.90;;;;;;5094103;28;20036;-36
2024/01/26 11:13:09;;;;;;;11.55;2.83;;;8.90;99.90;;;;;;5091445;28;20082;-36
2024/01/26 11:15:36;;;;;;;11.60;2.67;;;8.90;99.90;;;;;;5095593;28;20060;-38
2024/01/26 11:18:03;;;;;;;11.70;2.28;;;8.90;99.90;;;;;;5092089;28;20059;-37
2024/01/26 11:20:34;;;;;;;22.38;3.22;;;8.80;99.90;;;;;;5095397;28;20223;-33
2024/01/26 11:23:12;;;;;;;8.02;2.22;;;8.80;99.90;;;;;;5091293;28;20518;-36
2024/01/26 11:25:41;;;;;;;10.63;2.28;;;8.80;99.90;;;;;;5095122;28;20040;-38
2024/01/26 11:28:08;;;;;;;14.15;2.90;;;8.80;99.90;;;;;;5080380;28;20463;-34
2024/01/26 11:30:37;;;;;;;11.18;2.75;;;8.70;99.90;;;;;;5092781;28;20071;-36
2024/01/26 11:33:14;;;;;;;12.05;3.20;;;8.70;99.90;;;;;;5092099;28;20048;-35
2024/01/26 11:35:40;;;;;;;10.35;2.72;;;8.70;99.90;;;;;;5089862;28;20067;-36
2024/01/26 11:38:07;;;;;;;11.07;2.90;;;8.70;99.90;;;;;;5075857;28;20526;-36
2024/01/26 11:40:33;;;;;;;16.67;3.38;;;8.60;99.90;;;;;;5088506;28;20040;-37
2024/01/26 11:42:59;;;;;;;12.77;3.33;;;8.60;99.90;;;;;;5094944;28;20040;-36
2024/01/26 11:45:45;;;;;;;20.05;3.17;;;8.60;99.90;;;;;;5089627;28;20055;-36
2024/01/26 11:48:12;;;;;;;10.70;2.85;;;8.50;99.90;;;;;;5093166;28;20044;-35
2024/01/26 11:50:42;;;;;;;13.82;3.58;;;8.50;99.90;;;;;;5066684;28;20043;-37
2024/01/26 11:53:08;;;;;;;12.77;2.80;;;8.50;99.90;;;;;;5080171;28;20119;-35
2024/01/26 11:55:35;;;;;;;18.00;3.05;;;8.50;99.90;;;;;;5093061;28;20503;-37
2024/01/26 11:58:01;;;;;;;15.70;3.58;;;8.50;99.90;;;;;;5073984;28;20089;-37
2024/01/26 12:00:30;;;;;;;13.98;2.70;;;8.40;99.90;;;;;;5104522;28;20043;-36
2024/01/26 12:02:56;;;;;;;11.85;2.90;;;8.40;99.90;;;;;;5077451;28;20079;-35
2024/01/26 12:05:22;;;;;;;14.95;3.30;;;8.40;99.90;;;;;;5076631;28;20040;-34
2024/01/26 12:07:48;;;;;;;11.05;2.88;;;8.40;99.90;;;;;;5095638;28;20352;-35
2024/01/26 12:10:14;;;;;;;13.73;2.90;;;8.40;99.90;;;;;;5069880;28;20068;-33
2024/01/26 12:12:44;;;;;;;15.90;3.22;;;8.40;99.90;;;;;;5094193;28;20032;-33
2024/01/26 12:15:10;;;;;;;16.52;4.07;;;8.30;99.90;;;;;;5079632;28;20084;-34
2024/01/26 12:17:36;;;;;;;14.13;2.75;;;8.30;99.90;;;;;;5087317;28;20520;-34
2024/01/26 12:20:08;;;;;;;12.68;3.28;;;8.30;99.90;;;;;;5085274;28;20036;-33
2024/01/26 12:22:34;;;;;;;16.80;3.53;;;8.30;99.90;;;;;;5087627;28;20144;-34
2024/01/26 12:25:03;;;;;;;14.45;3.17;;;8.30;99.90;;;;;;5087175;28;20048;-34
2024/01/26 12:27:29;;;;;;;14.30;3.35;;;8.20;99.90;;;;;;5091695;28;20066;-34
2024/01/26 12:29:55;;;;;;;15.90;3.70;;;8.30;99.90;;;;;;5092076;28;20487;-33
2024/01/26 12:32:20;;;;;;;15.43;2.58;;;8.20;99.90;;;;;;5087122;28;20059;-34